TimeMST,TemperatureF,Dew PointF,Humidity,Sea Level PressureIn,VisibilityMPH,Wind Direction,Wind SpeedMPH,Gust SpeedMPH,PrecipitationIn,Events,Conditions,WindDirDegrees,DateUTC
12:53 AM,26.1,24.1,92,30.47,6.0,ESE,8.1,-,N/A,,Clear,110,2013-02-02 07:53:00
1:53 AM,26.6,21.2,80,30.43,7.0,SE,8.1,-,N/A,,Clear,130,2013-02-02 08:53:00
2:53 AM,27.0,23.0,85,30.49,8.0,South,6.9,-,N/A,,Clear,170,2013-02-02 09:53:00
3:53 AM,19.9,18.0,92,30.52,8.0,WSW,3.5,-,N/A,,Clear,250,2013-02-02 10:53:00
4:53 AM,21.2,19.4,93,30.47,7.0,ESE,4.6,-,N/A,,Clear,120,2013-02-02 11:53:00
5:53 AM,21.9,19.9,92,30.53,8.0,Calm,Calm,-,N/A,,Partly Cloudy,0,2013-02-02 12:53:00
6:53 AM,14.0,10.9,88,30.57,10.0,Calm,Calm,-,N/A,,Partly Cloudy,0,2013-02-02 13:53:00
7:53 AM,16.0,14.0,92,30.58,10.0,Calm,Calm,-,N/A,Fog,Shallow Fog,0,2013-02-02 14:53:00
8:53 AM,15.1,12.0,88,30.61,10.0,Calm,Calm,-,N/A,,Scattered Clouds,0,2013-02-02 15:53:00
9:53 AM,21.0,18.0,88,30.58,10.0,NW,3.5,-,N/A,,Scattered Clouds,320,2013-02-02 16:53:00
10:53 AM,24.1,19.0,81,30.59,10.0,North,6.9,-,N/A,,Scattered Clouds,350,2013-02-02 17:53:00
11:53 AM,30.0,24.1,79,30.56,10.0,Calm,Calm,-,N/A,,Scattered Clouds,0,2013-02-02 18:53:00
12:53 PM,33.1,26.1,75,30.51,10.0,NNW,4.6,-,N/A,,Mostly Cloudy,340,2013-02-02 19:53:00
1:53 PM,34.0,26.1,73,30.50,10.0,WNW,5.8,-,N/A,,Mostly Cloudy,300,2013-02-02 20:53:00
2:53 PM,33.1,26.1,75,30.50,10.0,WNW,6.9,-,N/A,,Mostly Cloudy,300,2013-02-02 21:53:00
3:53 PM,30.9,26.1,82,30.51,6.0,WNW,6.9,-,N/A,,Haze,290,2013-02-02 22:53:00
4:53 PM,30.0,25.0,82,30.50,4.0,WNW,5.8,-,N/A,,Haze,290,2013-02-02 23:53:00
5:53 PM,27.0,25.0,92,30.51,3.0,WNW,8.1,-,N/A,,Mostly Cloudy,290,2013-02-03 00:53:00
6:00 PM,25.0,23.0,92,30.42,1.8,WNW,8.1,-,N/A,,Mostly Cloudy,290,2013-02-03 01:00:00
6:08 PM,24.8,23.0,93,30.42,0.2,West,6.9,-,N/A,Fog,Light Freezing Fog,280,2013-02-03 01:08:00
6:12 PM,25.0,24.1,96,30.42,0.2,WNW,6.9,-,N/A,Fog,Light Freezing Fog,290,2013-02-03 01:12:00
6:53 PM,26.1,25.0,96,30.55,0.2,West,5.8,-,N/A,Fog,Light Freezing Fog,260,2013-02-03 01:53:00
7:53 PM,25.0,25.0,100,30.53,0.1,Calm,Calm,-,N/A,Fog,Light Freezing Fog,0,2013-02-03 02:53:00
8:53 PM,25.0,24.1,96,30.53,0.1,Calm,Calm,-,N/A,Fog,Light Freezing Fog,0,2013-02-03 03:53:00
9:53 PM,25.0,24.1,96,30.51,0.1,Calm,Calm,-,N/A,Fog,Light Freezing Fog,0,2013-02-03 04:53:00
10:53 PM,25.0,21.9,88,30.48,0.1,Calm,Calm,-,N/A,Fog,Light Freezing Fog,0,2013-02-03 05:53:00
11:53 PM,26.1,21.9,84,30.44,0.1,NNE,3.5,-,N/A,Fog,Light Freezing Fog,20,2013-02-03 06:53:00